createdAt,value
2019-01-06T00:00:23.196Z,0
2019-01-06T00:01:33.167Z,0
2019-01-06T00:02:42.859Z,0
2019-01-06T00:03:52.310Z,0
2019-01-06T00:05:02.004Z,0
2019-01-06T00:06:11.941Z,0
2019-01-06T00:07:21.879Z,0
2019-01-06T00:08:31.831Z,0
2019-01-06T00:09:41.804Z,0
2019-01-06T00:10:51.241Z,0
2019-01-06T00:12:00.767Z,0
2019-01-06T00:13:10.735Z,0
2019-01-06T00:14:20.700Z,0
2019-01-06T00:15:30.635Z,0
2019-01-06T00:16:40.067Z,0
2019-01-06T00:17:49.750Z,0
2019-01-06T00:18:59.446Z,0
2019-01-06T00:20:09.385Z,0
2019-01-06T00:21:19.088Z,0
2019-01-06T00:22:28.783Z,0
2019-01-06T00:23:38.472Z,0
2019-01-06T00:24:48.413Z,0
2019-01-06T00:25:58.360Z,0
2019-01-06T00:27:08.307Z,0
2019-01-06T00:28:18.244Z,0
2019-01-06T00:29:28.189Z,0
2019-01-06T00:30:38.137Z,0
2019-01-06T00:31:48.091Z,0
2019-01-06T00:32:58.045Z,0
2019-01-06T00:34:07.981Z,0
2019-01-06T00:35:17.918Z,0
2019-01-06T00:36:27.633Z,0
2019-01-06T00:37:37.323Z,0
2019-01-06T00:38:47.267Z,0
2019-01-06T00:39:57.214Z,0
2019-01-06T00:41:06.658Z,0
2019-01-06T00:42:16.607Z,0
2019-01-06T00:43:26.293Z,0
2019-01-06T00:44:35.819Z,0
2019-01-06T00:45:45.527Z,0
2019-01-06T00:46:55.470Z,0
2019-01-06T00:48:05.175Z,0
2019-01-06T00:49:15.113Z,0
2019-01-06T00:50:24.823Z,0
2019-01-06T00:51:34.757Z,0
2019-01-06T00:52:44.711Z,0
2019-01-06T00:53:54.421Z,0
2019-01-06T00:55:04.111Z,0
2019-01-06T00:56:13.545Z,0
2019-01-06T00:57:22.977Z,0
2019-01-06T00:58:32.903Z,0
2019-01-06T00:59:43.158Z,0
2019-01-06T01:00:52.847Z,0
2019-01-06T01:02:02.803Z,0
2019-01-06T01:03:12.759Z,0
2019-01-06T01:04:22.700Z,0
2019-01-06T01:05:32.645Z,0
2019-01-06T01:06:42.602Z,0
2019-01-06T01:07:52.537Z,0
2019-01-06T01:09:02.487Z,0
2019-01-06T01:10:12.449Z,0
2019-01-06T01:11:22.411Z,0
2019-01-06T01:12:32.362Z,0
2019-01-06T01:13:42.047Z,0
2019-01-06T01:14:51.751Z,0
2019-01-06T01:16:01.429Z,0
2019-01-06T01:17:11.115Z,0
2019-01-06T01:18:21.089Z,0
2019-01-06T01:19:30.777Z,0
2019-01-06T01:20:40.464Z,0
2019-01-06T01:21:50.435Z,0
2019-01-06T01:23:00.389Z,0
2019-01-06T01:24:10.093Z,0
2019-01-06T01:25:20.037Z,0
2019-01-06T01:26:29.734Z,0
2019-01-06T01:27:39.663Z,0
2019-01-06T01:28:49.357Z,0
2019-01-06T01:29:59.049Z,0
2019-01-06T01:31:08.991Z,0
2019-01-06T01:32:18.698Z,0
2019-01-06T01:33:28.635Z,0
2019-01-06T01:34:38.321Z,0
2019-01-06T01:35:48.260Z,0
2019-01-06T01:36:58.191Z,0
2019-01-06T01:38:07.879Z,0
2019-01-06T01:39:17.844Z,0
2019-01-06T01:40:27.798Z,0
2019-01-06T01:41:37.023Z,0
2019-01-06T01:42:46.950Z,0
2019-01-06T01:43:56.899Z,0
2019-01-06T01:45:06.823Z,0
2019-01-06T01:46:16.765Z,0
2019-01-06T01:47:26.203Z,0
2019-01-06T01:48:35.641Z,0
2019-01-06T01:49:45.610Z,0
2019-01-06T01:50:55.558Z,0
2019-01-06T01:52:05.495Z,0
2019-01-06T01:53:15.438Z,0
2019-01-06T01:54:24.869Z,0
2019-01-06T01:55:34.316Z,0
2019-01-06T01:56:44.339Z,0
2019-01-06T01:57:53.778Z,0
2019-01-06T01:59:03.461Z,0
2019-01-06T02:00:13.147Z,0
2019-01-06T02:01:22.576Z,0
2019-01-06T02:02:32.515Z,0
2019-01-06T02:03:42.195Z,0
2019-01-06T02:04:52.117Z,0
2019-01-06T02:06:02.061Z,0
2019-01-06T02:07:11.755Z,0
2019-01-06T02:08:21.691Z,0
2019-01-06T02:09:31.626Z,0
2019-01-06T02:10:41.060Z,0
2019-01-06T02:11:50.741Z,0
2019-01-06T02:13:00.427Z,0
2019-01-06T02:14:10.460Z,0
2019-01-06T02:15:20.403Z,0
2019-01-06T02:16:30.344Z,0
2019-01-06T02:17:39.824Z,0
2019-01-06T02:18:49.715Z,0
2019-01-06T02:19:59.651Z,0
2019-01-06T02:21:09.589Z,0
2019-01-06T02:22:19.513Z,0
2019-01-06T02:23:29.458Z,0
2019-01-06T02:24:39.131Z,0
2019-01-06T02:25:48.806Z,0
2019-01-06T02:26:58.745Z,0
2019-01-06T02:28:08.437Z,0
2019-01-06T02:29:18.118Z,0
2019-01-06T02:30:28.075Z,0
2019-01-06T02:31:38.021Z,0
2019-01-06T02:32:47.954Z,0
2019-01-06T02:33:57.643Z,0
2019-01-06T02:35:07.595Z,0
2019-01-06T02:36:17.564Z,0
2019-01-06T02:37:27.507Z,0
2019-01-06T02:38:37.471Z,0
2019-01-06T02:39:46.906Z,0
2019-01-06T02:40:56.854Z,0
2019-01-06T02:42:06.303Z,0
2019-01-06T02:43:16.004Z,0
2019-01-06T02:44:25.482Z,0
2019-01-06T02:45:35.179Z,0
2019-01-06T02:46:44.632Z,0
2019-01-06T02:47:54.594Z,0
2019-01-06T02:49:04.538Z,0
2019-01-06T02:50:14.469Z,0
2019-01-06T02:51:24.408Z,0
2019-01-06T02:52:34.079Z,0
2019-01-06T02:53:43.798Z,0
2019-01-06T02:54:53.736Z,0
2019-01-06T02:56:03.177Z,0
2019-01-06T02:57:12.610Z,0
2019-01-06T02:58:22.298Z,0
2019-01-06T02:59:31.999Z,0
2019-01-06T03:00:41.933Z,0
2019-01-06T03:01:51.632Z,0
2019-01-06T03:03:01.339Z,0
2019-01-06T03:04:11.041Z,0
2019-01-06T03:05:20.764Z,0
2019-01-06T03:06:30.703Z,0
2019-01-06T03:07:40.437Z,0
2019-01-06T03:08:50.380Z,0
2019-01-06T03:10:00.248Z,0
2019-01-06T03:11:10.212Z,0
2019-01-06T03:12:20.155Z,0
2019-01-06T03:13:29.839Z,0
2019-01-06T03:14:39.786Z,0
2019-01-06T03:15:49.719Z,0
2019-01-06T03:16:59.661Z,0
2019-01-06T03:18:09.380Z,0
2019-01-06T03:19:19.337Z,0
2019-01-06T03:20:29.346Z,0
2019-01-06T03:21:39.285Z,0
2019-01-06T03:22:48.973Z,0
2019-01-06T03:23:58.414Z,0
2019-01-06T03:25:08.354Z,0
2019-01-06T03:26:18.318Z,0
2019-01-06T03:27:28.259Z,0
2019-01-06T03:28:37.938Z,0
2019-01-06T03:29:47.882Z,0
2019-01-06T03:30:57.876Z,0
2019-01-06T03:32:07.734Z,0
2019-01-06T03:33:17.720Z,0
2019-01-06T03:34:27.670Z,0
2019-01-06T03:35:37.622Z,0
2019-01-06T03:36:47.066Z,0
2019-01-06T03:37:57.019Z,0
2019-01-06T03:39:06.717Z,0
2019-01-06T03:40:16.414Z,0
2019-01-06T03:41:26.113Z,0
2019-01-06T03:42:36.060Z,0
2019-01-06T03:43:45.994Z,0
2019-01-06T03:44:55.947Z,0
2019-01-06T03:46:05.644Z,0
2019-01-06T03:47:15.579Z,0
2019-01-06T03:48:25.518Z,0
2019-01-06T03:49:35.221Z,0
2019-01-06T03:50:44.918Z,0
2019-01-06T03:51:54.870Z,0
2019-01-06T03:53:04.830Z,0
2019-01-06T03:54:14.786Z,0
2019-01-06T03:55:24.490Z,0
2019-01-06T03:56:34.428Z,0
2019-01-06T03:57:43.878Z,0
2019-01-06T03:58:53.838Z,0
2019-01-06T04:00:05.726Z,0
2019-01-06T04:01:15.408Z,0
2019-01-06T04:02:25.352Z,0
2019-01-06T04:03:35.042Z,0
2019-01-06T04:04:45.006Z,0
2019-01-06T04:05:54.520Z,0
2019-01-06T04:07:04.470Z,0
2019-01-06T04:08:14.179Z,0
2019-01-06T04:09:24.124Z,0
2019-01-06T04:10:34.082Z,0
2019-01-06T04:11:43.782Z,0
2019-01-06T04:12:53.733Z,0
2019-01-06T04:14:03.426Z,0
2019-01-06T04:15:13.376Z,0
2019-01-06T04:16:22.564Z,0
2019-01-06T04:17:32.496Z,0
2019-01-06T04:18:42.454Z,0
2019-01-06T04:19:52.437Z,0
2019-01-06T04:21:02.129Z,0
2019-01-06T04:22:12.068Z,0
2019-01-06T04:23:21.504Z,0
2019-01-06T04:24:31.188Z,0
2019-01-06T04:25:41.142Z,0
2019-01-06T04:26:50.860Z,0
2019-01-06T04:28:00.558Z,0
2019-01-06T04:29:10.490Z,0
2019-01-06T04:30:20.436Z,0
2019-01-06T04:31:30.124Z,0
2019-01-06T04:32:40.096Z,0
2019-01-06T04:33:50.044Z,0
2019-01-06T04:35:00.004Z,0
2019-01-06T04:36:09.941Z,0
2019-01-06T04:37:19.896Z,0
2019-01-06T04:38:29.590Z,0
2019-01-06T04:39:39.278Z,0
2019-01-06T04:40:49.200Z,0
2019-01-06T04:41:59.142Z,0
2019-01-06T04:43:08.922Z,0
2019-01-06T04:44:18.961Z,0
2019-01-06T04:45:28.670Z,0
2019-01-06T04:46:38.618Z,0
2019-01-06T04:47:48.562Z,0
2019-01-06T04:48:58.497Z,0
2019-01-06T04:50:08.445Z,0
2019-01-06T04:51:18.385Z,0
2019-01-06T04:52:28.325Z,0
2019-01-06T04:53:38.027Z,0
2019-01-06T04:54:48.196Z,0
2019-01-06T04:55:57.879Z,0
2019-01-06T04:57:08.112Z,0
2019-01-06T04:58:18.062Z,0
2019-01-06T04:59:28.081Z,0
2019-01-06T05:00:37.821Z,0
2019-01-06T05:01:47.784Z,0
2019-01-06T05:02:57.486Z,0
2019-01-06T05:04:06.943Z,0
2019-01-06T05:05:16.887Z,0
2019-01-06T05:06:26.822Z,0
2019-01-06T05:07:36.508Z,0
2019-01-06T05:08:46.446Z,0
2019-01-06T05:09:56.404Z,0
2019-01-06T05:11:06.366Z,0
2019-01-06T05:12:16.352Z,0
2019-01-06T05:13:26.296Z,0
2019-01-06T05:14:36.233Z,0
2019-01-06T05:15:45.939Z,0
2019-01-06T05:16:55.637Z,0
2019-01-06T05:18:05.314Z,0
2019-01-06T05:19:15.008Z,0
2019-01-06T05:20:24.948Z,0
2019-01-06T05:21:34.901Z,0
2019-01-06T05:22:44.837Z,0
2019-01-06T05:23:54.524Z,0
2019-01-06T05:25:04.239Z,0
2019-01-06T05:26:13.928Z,0
2019-01-06T05:27:23.631Z,0
2019-01-06T05:28:33.558Z,0
2019-01-06T05:29:43.254Z,0
2019-01-06T05:30:52.685Z,0
2019-01-06T05:32:02.684Z,0
2019-01-06T05:33:12.364Z,0
2019-01-06T05:34:21.818Z,0
2019-01-06T05:35:31.769Z,0
2019-01-06T05:36:41.710Z,0
2019-01-06T05:37:51.389Z,0
2019-01-06T05:39:00.833Z,0
2019-01-06T05:40:10.509Z,0
2019-01-06T05:41:20.219Z,0
2019-01-06T05:42:29.912Z,0
2019-01-06T05:43:39.893Z,0
2019-01-06T05:44:49.860Z,0
2019-01-06T05:45:59.560Z,0
2019-01-06T05:47:09.503Z,0
2019-01-06T05:48:19.439Z,0
2019-01-06T05:49:29.138Z,0
2019-01-06T05:50:39.095Z,0
2019-01-06T05:51:49.031Z,0
2019-01-06T05:52:58.711Z,0
2019-01-06T05:54:07.939Z,0
2019-01-06T05:55:17.894Z,0
2019-01-06T05:56:27.833Z,0
2019-01-06T05:57:37.524Z,0
2019-01-06T05:58:47.544Z,0
2019-01-06T05:59:57.483Z,0
2019-01-06T06:01:07.521Z,0
2019-01-06T06:02:17.198Z,0
2019-01-06T06:03:27.135Z,0
2019-01-06T06:04:36.583Z,0
2019-01-06T06:05:46.014Z,0
2019-01-06T06:06:55.195Z,0
2019-01-06T06:08:05.145Z,0
2019-01-06T06:09:14.846Z,0
2019-01-06T06:10:24.800Z,0
2019-01-06T06:11:34.733Z,0
2019-01-06T06:12:44.449Z,0
2019-01-06T06:13:54.379Z,0
2019-01-06T06:15:04.071Z,0
2019-01-06T06:16:13.507Z,0
2019-01-06T06:17:23.436Z,0
2019-01-06T06:18:33.127Z,0
2019-01-06T06:19:43.078Z,0
2019-01-06T06:20:52.510Z,0
2019-01-06T06:22:02.439Z,0
2019-01-06T06:23:12.122Z,0
2019-01-06T06:24:22.606Z,0
2019-01-06T06:25:32.385Z,0
2019-01-06T06:26:42.378Z,0
2019-01-06T06:27:52.317Z,0
2019-01-06T06:29:02.308Z,0
2019-01-06T06:30:11.994Z,0
2019-01-06T06:31:21.675Z,0
2019-01-06T06:32:31.365Z,0
2019-01-06T06:33:41.073Z,0
2019-01-06T06:34:50.765Z,0
2019-01-06T06:36:00.458Z,0
2019-01-06T06:37:10.142Z,0
2019-01-06T06:38:20.099Z,0
2019-01-06T06:39:29.778Z,0
2019-01-06T06:40:39.733Z,0
2019-01-06T06:41:49.425Z,0
2019-01-06T06:42:59.367Z,0
2019-01-06T06:44:09.314Z,0
2019-01-06T06:45:19.259Z,0
2019-01-06T06:46:29.223Z,0
2019-01-06T06:47:39.205Z,0
2019-01-06T06:48:49.145Z,0
2019-01-06T06:49:59.109Z,0
2019-01-06T06:51:09.056Z,0
2019-01-06T06:52:19.001Z,0
2019-01-06T06:53:28.696Z,0
2019-01-06T06:54:38.631Z,0
2019-01-06T06:55:48.323Z,0
2019-01-06T06:56:58.041Z,0
2019-01-06T06:58:07.479Z,0
2019-01-06T06:59:17.172Z,0
2019-01-06T07:00:27.129Z,0
2019-01-06T07:01:36.817Z,0
2019-01-06T07:02:46.775Z,0
2019-01-06T07:03:56.715Z,0
2019-01-06T07:05:06.163Z,0
2019-01-06T07:06:15.587Z,0
2019-01-06T07:07:25.517Z,5
2019-01-06T07:08:35.461Z,5
2019-01-06T07:09:45.390Z,5
2019-01-06T07:10:55.330Z,5
2019-01-06T07:12:05.259Z,5
2019-01-06T07:13:14.949Z,5
2019-01-06T07:14:24.901Z,5
2019-01-06T07:15:34.856Z,10
2019-01-06T07:16:44.559Z,10
2019-01-06T07:17:54.523Z,10
2019-01-06T07:19:04.494Z,10
2019-01-06T07:20:14.194Z,15
2019-01-06T07:21:23.890Z,15
2019-01-06T07:22:33.588Z,15
2019-01-06T07:23:43.271Z,15
2019-01-06T07:24:52.959Z,15
2019-01-06T07:26:02.901Z,20
2019-01-06T07:27:12.841Z,20
2019-01-06T07:28:22.787Z,20
2019-01-06T07:29:32.477Z,20
2019-01-06T07:30:42.169Z,25
2019-01-06T07:31:52.102Z,25
2019-01-06T07:33:02.035Z,25
2019-01-06T07:34:11.459Z,25
2019-01-06T07:35:21.138Z,25
2019-01-06T07:36:30.587Z,30
2019-01-06T07:37:40.551Z,30
2019-01-06T07:38:50.497Z,35
2019-01-06T07:39:59.919Z,35
2019-01-06T07:41:09.864Z,40
2019-01-06T07:42:19.307Z,45
2019-01-06T07:43:29.311Z,45
2019-01-06T07:44:39.255Z,50
2019-01-06T07:45:49.205Z,50
2019-01-06T07:46:58.884Z,55
2019-01-06T07:48:08.587Z,55
2019-01-06T07:49:18.531Z,55
2019-01-06T07:50:28.218Z,60
2019-01-06T07:51:38.162Z,60
2019-01-06T07:52:48.103Z,65
2019-01-06T07:53:57.791Z,65
2019-01-06T07:55:07.741Z,70
2019-01-06T07:56:17.673Z,70
2019-01-06T07:57:27.355Z,70
2019-01-06T07:58:37.309Z,70
2019-01-06T07:59:47.254Z,70
2019-01-06T08:00:57.191Z,75
2019-01-06T08:02:06.875Z,80
2019-01-06T08:03:16.821Z,80
2019-01-06T08:04:26.516Z,85
2019-01-06T08:05:36.439Z,90
2019-01-06T08:06:46.123Z,90
2019-01-06T08:07:55.823Z,95
2019-01-06T08:09:05.759Z,100
2019-01-06T08:10:15.687Z,95
2019-01-06T08:11:25.637Z,100
2019-01-06T08:12:35.331Z,100
2019-01-06T08:13:45.019Z,105
2019-01-06T08:14:54.732Z,115
2019-01-06T08:16:04.690Z,115
2019-01-06T08:17:14.369Z,125
2019-01-06T08:18:24.085Z,125
2019-01-06T08:19:33.781Z,135
2019-01-06T08:20:43.723Z,140
2019-01-06T08:21:53.426Z,145
2019-01-06T08:23:03.368Z,150
2019-01-06T08:24:13.076Z,155
2019-01-06T08:25:22.067Z,150
2019-01-06T08:26:31.999Z,150
2019-01-06T08:27:41.934Z,150
2019-01-06T08:28:51.630Z,160
2019-01-06T08:30:01.330Z,165
2019-01-06T08:31:11.261Z,165
2019-01-06T08:32:21.200Z,160
2019-01-06T08:33:30.904Z,160
2019-01-06T08:34:40.840Z,160
2019-01-06T08:35:50.781Z,160
2019-01-06T08:37:00.229Z,160
2019-01-06T08:38:09.937Z,165
2019-01-06T08:39:19.888Z,165
2019-01-06T08:40:29.825Z,170
2019-01-06T08:41:39.263Z,175
2019-01-06T08:42:49.201Z,180
2019-01-06T08:43:58.891Z,175
2019-01-06T08:45:08.860Z,170
2019-01-06T08:46:18.619Z,170
2019-01-06T08:47:28.050Z,170
2019-01-06T08:48:38.015Z,170
2019-01-06T08:49:47.999Z,175
2019-01-06T08:50:57.935Z,170
2019-01-06T08:52:07.871Z,170
2019-01-06T08:53:17.810Z,175
2019-01-06T08:54:27.765Z,180
2019-01-06T08:55:37.467Z,185
2019-01-06T08:56:47.165Z,185
2019-01-06T08:57:57.107Z,185
2019-01-06T08:59:06.795Z,185
2019-01-06T09:00:16.490Z,190
2019-01-06T09:01:26.506Z,195
2019-01-06T09:02:36.204Z,195
2019-01-06T09:03:45.669Z,200
2019-01-06T09:04:55.101Z,200
2019-01-06T09:06:05.050Z,205
2019-01-06T09:07:14.994Z,205
2019-01-06T09:08:24.709Z,200
2019-01-06T09:09:34.410Z,200
2019-01-06T09:10:44.121Z,205
2019-01-06T09:11:53.818Z,205
2019-01-06T09:13:03.508Z,205
2019-01-06T09:14:13.455Z,205
2019-01-06T09:15:23.410Z,210
2019-01-06T09:16:33.357Z,205
2019-01-06T09:17:43.312Z,205
2019-01-06T09:18:53.008Z,205
2019-01-06T09:20:03.494Z,205
2019-01-06T09:21:13.441Z,205
2019-01-06T09:22:23.132Z,210
2019-01-06T09:23:32.824Z,215
2019-01-06T09:24:42.777Z,215
2019-01-06T09:25:52.784Z,220
2019-01-06T09:27:02.734Z,225
2019-01-06T09:28:12.417Z,235
2019-01-06T09:29:22.111Z,245
2019-01-06T09:30:32.072Z,255
2019-01-06T09:31:42.017Z,265
2019-01-06T09:32:51.721Z,270
2019-01-06T09:34:01.423Z,270
2019-01-06T09:35:11.674Z,260
2019-01-06T09:36:21.719Z,255
2019-01-06T09:37:31.401Z,250
2019-01-06T09:38:41.096Z,250
2019-01-06T09:39:50.800Z,250
2019-01-06T09:41:00.501Z,255
2019-01-06T09:42:10.455Z,265
2019-01-06T09:43:20.163Z,270
2019-01-06T09:44:30.105Z,265
2019-01-06T09:45:40.623Z,270
2019-01-06T09:46:51.898Z,280
2019-01-06T09:48:01.837Z,290
2019-01-06T09:49:11.549Z,290
2019-01-06T09:50:21.494Z,295
2019-01-06T09:51:31.452Z,285
2019-01-06T09:52:41.390Z,270
2019-01-06T09:53:51.326Z,255
2019-01-06T09:55:01.297Z,255
2019-01-06T09:56:11.261Z,265
2019-01-06T09:57:21.714Z,275
2019-01-06T09:58:31.659Z,280
2019-01-06T09:59:41.368Z,275
2019-01-06T10:00:50.809Z,260
2019-01-06T10:02:02.251Z,240
2019-01-06T10:03:11.936Z,230
2019-01-06T10:04:21.617Z,240
2019-01-06T10:05:31.579Z,265
2019-01-06T10:06:41.284Z,250
2019-01-06T10:07:51.006Z,230
2019-01-06T10:09:00.709Z,215
2019-01-06T10:10:10.660Z,215
2019-01-06T10:11:20.591Z,230
2019-01-06T10:12:30.547Z,250
2019-01-06T10:13:40.487Z,250
2019-01-06T10:14:50.185Z,265
2019-01-06T10:15:59.390Z,285
2019-01-06T10:17:09.095Z,295
2019-01-06T10:18:19.056Z,295
2019-01-06T10:19:29.010Z,280
2019-01-06T10:20:38.963Z,285
2019-01-06T10:21:48.669Z,275
2019-01-06T10:22:58.361Z,285
2019-01-06T10:24:08.077Z,290
2019-01-06T10:25:18.092Z,295
2019-01-06T10:26:28.047Z,310
2019-01-06T10:27:37.751Z,320
2019-01-06T10:28:49.597Z,305
2019-01-06T10:29:59.303Z,285
2019-01-06T10:31:08.819Z,300
2019-01-06T10:32:18.504Z,320
2019-01-06T10:33:28.463Z,350
2019-01-06T10:34:38.415Z,375
2019-01-06T10:35:48.145Z,400
2019-01-06T10:36:58.118Z,405
2019-01-06T10:38:07.814Z,400
2019-01-06T10:39:17.850Z,410
2019-01-06T10:40:27.541Z,435
2019-01-06T10:41:37.506Z,450
2019-01-06T10:42:47.464Z,470
2019-01-06T10:43:57.436Z,470
2019-01-06T10:45:07.384Z,455
2019-01-06T10:46:17.096Z,460
2019-01-06T10:47:26.522Z,450
2019-01-06T10:48:36.480Z,415
2019-01-06T10:49:46.446Z,410
2019-01-06T10:50:56.137Z,415
2019-01-06T10:52:05.335Z,410
2019-01-06T10:53:15.380Z,400
2019-01-06T10:54:24.839Z,390
2019-01-06T10:55:34.794Z,375
2019-01-06T10:56:44.735Z,350
2019-01-06T10:57:54.687Z,325
2019-01-06T10:59:04.952Z,305
2019-01-06T11:00:14.859Z,300
2019-01-06T11:01:24.569Z,295
2019-01-06T11:02:34.334Z,300
2019-01-06T11:03:43.776Z,300
2019-01-06T11:04:53.729Z,300
2019-01-06T11:06:03.697Z,295
2019-01-06T11:07:13.388Z,290
2019-01-06T11:08:25.200Z,285
2019-01-06T11:09:34.904Z,280
2019-01-06T11:10:44.649Z,280
2019-01-06T11:11:54.613Z,275
2019-01-06T11:13:03.815Z,255
2019-01-06T11:14:13.778Z,250
2019-01-06T11:15:23.740Z,250
2019-01-06T11:16:33.436Z,245
2019-01-06T11:17:43.383Z,235
2019-01-06T11:18:53.360Z,230
2019-01-06T11:20:03.296Z,225
2019-01-06T11:21:13.078Z,225
2019-01-06T11:22:22.862Z,240
2019-01-06T11:23:32.558Z,260
2019-01-06T11:24:42.517Z,270
2019-01-06T11:25:52.476Z,275
2019-01-06T11:27:02.451Z,280
2019-01-06T11:28:12.414Z,290
2019-01-06T11:29:22.368Z,295
2019-01-06T11:30:32.064Z,300
2019-01-06T11:31:41.757Z,300
2019-01-06T11:32:51.474Z,310
2019-01-06T11:34:02.648Z,315
2019-01-06T11:35:12.602Z,315
2019-01-06T11:36:22.311Z,315
2019-01-06T11:37:32.855Z,305
2019-01-06T11:38:42.537Z,300
2019-01-06T11:39:51.976Z,315
2019-01-06T11:41:07.806Z,365
2019-01-06T11:42:18.187Z,435
2019-01-06T11:43:28.130Z,550
2019-01-06T11:44:38.078Z,460
2019-01-06T11:45:48.030Z,425
2019-01-06T11:46:57.972Z,420
2019-01-06T11:48:07.692Z,430
2019-01-06T11:49:17.638Z,400
2019-01-06T11:50:27.602Z,375
2019-01-06T11:51:37.557Z,355
2019-01-06T11:52:47.322Z,310
2019-01-06T11:53:57.280Z,305
2019-01-06T11:55:07.288Z,315
2019-01-06T11:56:17.237Z,300
2019-01-06T11:57:26.931Z,295
2019-01-06T11:58:36.716Z,280
2019-01-06T11:59:45.914Z,285
2019-01-06T12:00:55.600Z,275
2019-01-06T12:02:06.468Z,250
2019-01-06T12:03:16.176Z,225
2019-01-06T12:04:26.128Z,215
2019-01-06T12:05:36.085Z,195
2019-01-06T12:06:45.774Z,180
2019-01-06T12:07:55.471Z,170
2019-01-06T12:09:05.152Z,255
2019-01-06T12:10:14.840Z,190
2019-01-06T12:11:24.793Z,215
2019-01-06T12:12:34.744Z,210
2019-01-06T12:13:44.711Z,210
2019-01-06T12:14:54.653Z,210
2019-01-06T12:16:04.351Z,225
2019-01-06T12:17:14.037Z,275
2019-01-06T12:18:23.982Z,300
2019-01-06T12:19:40.786Z,340
2019-01-06T12:20:50.464Z,335
2019-01-06T12:22:00.403Z,285
2019-01-06T12:23:10.105Z,280
2019-01-06T12:24:19.808Z,285
2019-01-06T12:25:29.768Z,295
2019-01-06T12:26:39.701Z,290
2019-01-06T12:27:49.382Z,270
2019-01-06T12:28:58.848Z,275
2019-01-06T12:30:08.533Z,300
2019-01-06T12:31:18.474Z,315
2019-01-06T12:32:28.431Z,315
2019-01-06T12:33:37.880Z,335
2019-01-06T12:34:47.610Z,335
2019-01-06T12:35:57.287Z,280
2019-01-06T12:37:07.222Z,260
2019-01-06T12:38:16.417Z,270
2019-01-06T12:39:26.384Z,275
2019-01-06T12:40:36.333Z,260
2019-01-06T12:41:46.293Z,250
2019-01-06T12:42:56.237Z,240
2019-01-06T12:44:06.175Z,235
2019-01-06T12:45:15.856Z,265
2019-01-06T12:46:25.628Z,260
2019-01-06T12:47:35.344Z,265
2019-01-06T12:48:45.031Z,280
2019-01-06T12:49:54.971Z,345
2019-01-06T12:51:04.673Z,375
2019-01-06T12:52:14.611Z,390
2019-01-06T12:53:24.554Z,465
2019-01-06T12:54:34.507Z,355
2019-01-06T12:55:45.320Z,290
2019-01-06T12:56:55.091Z,285
2019-01-06T12:58:05.047Z,275
2019-01-06T12:59:14.774Z,275
2019-01-06T13:00:24.729Z,265
2019-01-06T13:01:34.682Z,260
2019-01-06T13:02:44.644Z,260
2019-01-06T13:03:54.367Z,255
2019-01-06T13:05:04.068Z,245
2019-01-06T13:06:14.021Z,235
2019-01-06T13:07:24.039Z,225
2019-01-06T13:08:33.978Z,215
2019-01-06T13:09:43.929Z,210
2019-01-06T13:10:53.890Z,210
2019-01-06T13:12:03.838Z,205
2019-01-06T13:13:13.541Z,200
2019-01-06T13:14:23.484Z,185
2019-01-06T13:15:33.437Z,165
2019-01-06T13:16:43.142Z,155
2019-01-06T13:17:53.068Z,145
2019-01-06T13:19:03.030Z,140
2019-01-06T13:20:14.728Z,140
2019-01-06T13:21:24.709Z,130
2019-01-06T13:22:34.658Z,115
2019-01-06T13:23:44.616Z,105
2019-01-06T13:24:54.410Z,105
2019-01-06T13:26:04.371Z,110
2019-01-06T13:27:14.317Z,110
2019-01-06T13:28:24.259Z,115
2019-01-06T13:29:34.236Z,115
2019-01-06T13:30:44.173Z,115
2019-01-06T13:31:53.637Z,105
2019-01-06T13:33:03.323Z,105
2019-01-06T13:34:13.052Z,120
2019-01-06T13:35:22.993Z,125
2019-01-06T13:36:33.809Z,125
2019-01-06T13:37:43.658Z,130
2019-01-06T13:38:53.357Z,145
2019-01-06T13:40:03.323Z,160
2019-01-06T13:41:13.255Z,155
2019-01-06T13:42:22.943Z,150
2019-01-06T13:43:32.379Z,145
2019-01-06T13:44:42.072Z,140
2019-01-06T13:45:52.021Z,140
2019-01-06T13:47:01.975Z,140
2019-01-06T13:48:11.920Z,140
2019-01-06T13:49:21.625Z,140
2019-01-06T13:50:31.325Z,165
2019-01-06T13:51:41.052Z,170
2019-01-06T13:52:50.755Z,185
2019-01-06T13:54:00.735Z,195
2019-01-06T13:55:10.675Z,230
2019-01-06T13:56:20.623Z,205
2019-01-06T13:57:30.588Z,185
2019-01-06T13:58:40.639Z,180
2019-01-06T13:59:50.598Z,175
2019-01-06T14:01:00.555Z,185
2019-01-06T14:02:10.509Z,175
2019-01-06T14:03:20.252Z,165
2019-01-06T14:04:29.957Z,155
2019-01-06T14:05:39.415Z,135
2019-01-06T14:06:48.874Z,120
2019-01-06T14:07:58.852Z,105
2019-01-06T14:09:08.562Z,90
2019-01-06T14:10:18.500Z,85
2019-01-06T14:11:27.958Z,80
2019-01-06T14:12:37.918Z,75
2019-01-06T14:13:47.911Z,70
2019-01-06T14:14:57.610Z,65
2019-01-06T14:16:07.588Z,65
2019-01-06T14:17:17.544Z,60
2019-01-06T14:18:27.005Z,60
2019-01-06T14:19:36.962Z,65
2019-01-06T14:20:46.185Z,70
2019-01-06T14:21:55.893Z,70
2019-01-06T14:23:05.568Z,70
2019-01-06T14:24:15.539Z,65
2019-01-06T14:25:25.474Z,70
2019-01-06T14:26:35.178Z,65
2019-01-06T14:27:45.218Z,55
2019-01-06T14:28:55.181Z,50
2019-01-06T14:30:05.111Z,50
2019-01-06T14:31:15.063Z,55
2019-01-06T14:32:25.018Z,55
2019-01-06T14:33:34.992Z,55
2019-01-06T14:34:44.678Z,55
2019-01-06T14:35:54.617Z,50
2019-01-06T14:37:04.564Z,45
2019-01-06T14:38:14.241Z,45
2019-01-06T14:39:23.927Z,40
2019-01-06T14:40:33.626Z,40
2019-01-06T14:41:43.298Z,35
2019-01-06T14:42:52.742Z,35
2019-01-06T14:44:02.829Z,35
2019-01-06T14:45:12.516Z,35
2019-01-06T14:46:22.464Z,30
2019-01-06T14:47:32.441Z,30
2019-01-06T14:48:42.416Z,30
2019-01-06T14:49:52.135Z,30
2019-01-06T14:51:01.331Z,25
2019-01-06T14:52:11.299Z,25
2019-01-06T14:53:21.255Z,25
2019-01-06T14:54:30.945Z,20
2019-01-06T14:55:40.899Z,20
2019-01-06T14:56:50.848Z,20
2019-01-06T14:58:00.848Z,20
2019-01-06T14:59:10.307Z,20
2019-01-06T15:00:21.125Z,20
2019-01-06T15:01:30.831Z,20
2019-01-06T15:02:40.042Z,20
2019-01-06T15:03:50.011Z,20
2019-01-06T15:04:59.723Z,15
2019-01-06T15:06:09.184Z,15
2019-01-06T15:07:19.149Z,15
2019-01-06T15:08:28.616Z,10
2019-01-06T15:09:38.563Z,10
2019-01-06T15:10:48.267Z,10
2019-01-06T15:11:58.235Z,10
2019-01-06T15:13:07.941Z,5
2019-01-06T15:14:17.625Z,5
2019-01-06T15:15:27.095Z,5
2019-01-06T15:16:36.820Z,5
2019-01-06T15:17:46.793Z,5
2019-01-06T15:18:56.263Z,5
2019-01-06T15:20:05.720Z,5
2019-01-06T15:21:15.682Z,0
2019-01-06T15:22:25.129Z,0
2019-01-06T15:23:36.238Z,0
2019-01-06T15:24:46.304Z,0
2019-01-06T15:25:56.018Z,0
2019-01-06T15:27:05.983Z,0
2019-01-06T15:28:15.679Z,0
2019-01-06T15:29:25.137Z,0
2019-01-06T15:30:34.849Z,0
2019-01-06T15:31:44.839Z,0
2019-01-06T15:32:54.780Z,0
2019-01-06T15:34:04.735Z,0
2019-01-06T15:35:14.699Z,0
2019-01-06T15:36:24.648Z,0
2019-01-06T15:37:34.651Z,0
2019-01-06T15:38:44.608Z,0
2019-01-06T15:39:54.301Z,0
2019-01-06T15:41:03.765Z,0
2019-01-06T15:42:13.722Z,0
2019-01-06T15:43:23.676Z,0
2019-01-06T15:44:33.634Z,0
2019-01-06T15:45:43.587Z,0
2019-01-06T15:46:53.642Z,0
2019-01-06T15:48:04.325Z,0
2019-01-06T15:49:14.287Z,0
2019-01-06T15:50:23.980Z,0
2019-01-06T15:51:33.932Z,0
2019-01-06T15:52:43.371Z,0
2019-01-06T15:53:54.603Z,0
2019-01-06T15:55:04.358Z,0
2019-01-06T15:56:14.081Z,0
2019-01-06T15:57:23.603Z,0
2019-01-06T15:58:33.543Z,0
2019-01-06T15:59:43.550Z,0
2019-01-06T16:00:53.493Z,0
2019-01-06T16:02:03.190Z,0
2019-01-06T16:03:13.131Z,0
2019-01-06T16:04:22.830Z,0
2019-01-06T16:05:32.785Z,0
2019-01-06T16:06:42.727Z,0
2019-01-06T16:07:52.192Z,0
2019-01-06T16:09:04.455Z,0
2019-01-06T16:10:14.401Z,0
2019-01-06T16:11:24.515Z,0
2019-01-06T16:12:34.203Z,0
2019-01-06T16:13:43.907Z,0
2019-01-06T16:14:53.852Z,0
2019-01-06T16:16:03.816Z,0
2019-01-06T16:17:13.775Z,0
2019-01-06T16:18:23.489Z,0
2019-01-06T16:19:32.941Z,0
2019-01-06T16:20:42.646Z,0
2019-01-06T16:21:52.594Z,0
2019-01-06T16:23:02.549Z,0
2019-01-06T16:24:12.261Z,0
2019-01-06T16:25:22.228Z,0
2019-01-06T16:26:31.926Z,0
2019-01-06T16:27:41.889Z,0
2019-01-06T16:28:51.319Z,0
2019-01-06T16:30:01.279Z,0
2019-01-06T16:31:10.987Z,0
2019-01-06T16:32:20.423Z,0
2019-01-06T16:33:30.145Z,0
2019-01-06T16:34:39.840Z,0
2019-01-06T16:35:49.774Z,0
2019-01-06T16:36:59.215Z,0
2019-01-06T16:38:09.172Z,0
2019-01-06T16:39:18.877Z,0
2019-01-06T16:40:28.580Z,0
2019-01-06T16:41:38.556Z,0